sensor_id;sensor_type;location;lat;lon;timestamp;P1;durP1;ratioP1;P2;durP2;ratioP2
42084;SDS011;27746;52.228;20.890;2024-03-22T00:00:20;62.08;;;34.30;;
42084;SDS011;27746;52.228;20.890;2024-03-22T00:02:47;66.80;;;36.92;;
42084;SDS011;27746;52.228;20.890;2024-03-22T00:05:14;65.38;;;37.67;;
42084;SDS011;27746;52.228;20.890;2024-03-22T00:07:42;65.05;;;35.22;;
42084;SDS011;27746;52.228;20.890;2024-03-22T00:10:08;71.05;;;36.47;;
42084;SDS011;27746;52.228;20.890;2024-03-22T00:12:35;68.70;;;37.15;;
42084;SDS011;27746;52.228;20.890;2024-03-22T00:15:01;70.63;;;35.58;;
42084;SDS011;27746;52.228;20.890;2024-03-22T00:17:27;68.63;;;36.08;;
42084;SDS011;27746;52.228;20.890;2024-03-22T00:19:55;71.50;;;37.33;;
42084;SDS011;27746;52.228;20.890;2024-03-22T00:22:23;72.25;;;37.47;;
42084;SDS011;27746;52.228;20.890;2024-03-22T00:24:50;67.65;;;35.42;;
42084;SDS011;27746;52.228;20.890;2024-03-22T00:27:16;67.40;;;37.38;;
42084;SDS011;27746;52.228;20.890;2024-03-22T00:29:42;66.50;;;35.15;;
42084;SDS011;27746;52.228;20.890;2024-03-22T00:32:09;67.15;;;37.90;;
42084;SDS011;27746;52.228;20.890;2024-03-22T00:34:35;75.80;;;39.08;;
42084;SDS011;27746;52.228;20.890;2024-03-22T00:37:02;67.03;;;36.22;;
42084;SDS011;27746;52.228;20.890;2024-03-22T00:39:29;76.57;;;37.58;;
42084;SDS011;27746;52.228;20.890;2024-03-22T00:41:56;73.90;;;39.42;;
42084;SDS011;27746;52.228;20.890;2024-03-22T00:44:22;70.00;;;39.40;;
42084;SDS011;27746;52.228;20.890;2024-03-22T00:46:49;72.57;;;39.33;;
42084;SDS011;27746;52.228;20.890;2024-03-22T00:49:14;73.25;;;38.97;;
42084;SDS011;27746;52.228;20.890;2024-03-22T00:51:42;77.65;;;36.80;;
42084;SDS011;27746;52.228;20.890;2024-03-22T00:54:09;75.78;;;39.05;;
42084;SDS011;27746;52.228;20.890;2024-03-22T00:56:37;71.13;;;40.03;;
42084;SDS011;27746;52.228;20.890;2024-03-22T00:59:03;69.70;;;38.42;;
42084;SDS011;27746;52.228;20.890;2024-03-22T01:01:30;67.35;;;38.97;;
42084;SDS011;27746;52.228;20.890;2024-03-22T01:03:55;74.72;;;40.42;;
42084;SDS011;27746;52.228;20.890;2024-03-22T01:06:22;70.32;;;37.70;;
42084;SDS011;27746;52.228;20.890;2024-03-22T01:08:50;77.50;;;38.88;;
42084;SDS011;27746;52.228;20.890;2024-03-22T01:11:17;71.75;;;37.17;;
42084;SDS011;27746;52.228;20.890;2024-03-22T01:13:44;74.68;;;39.78;;
42084;SDS011;27746;52.228;20.890;2024-03-22T01:16:11;75.00;;;40.00;;
42084;SDS011;27746;52.228;20.890;2024-03-22T01:18:37;73.45;;;40.97;;
42084;SDS011;27746;52.228;20.890;2024-03-22T01:21:04;73.35;;;42.10;;
42084;SDS011;27746;52.228;20.890;2024-03-22T01:23:30;78.72;;;42.47;;
42084;SDS011;27746;52.228;20.890;2024-03-22T01:25:58;73.90;;;40.25;;
42084;SDS011;27746;52.228;20.890;2024-03-22T01:28:24;79.35;;;40.30;;
42084;SDS011;27746;52.228;20.890;2024-03-22T01:30:52;74.57;;;41.83;;
42084;SDS011;27746;52.228;20.890;2024-03-22T01:33:18;77.03;;;42.28;;
42084;SDS011;27746;52.228;20.890;2024-03-22T01:35:45;80.60;;;42.45;;
42084;SDS011;27746;52.228;20.890;2024-03-22T01:38:11;82.90;;;41.30;;
42084;SDS011;27746;52.228;20.890;2024-03-22T01:40:38;85.50;;;41.40;;
42084;SDS011;27746;52.228;20.890;2024-03-22T01:43:03;79.72;;;42.42;;
42084;SDS011;27746;52.228;20.890;2024-03-22T01:45:31;76.32;;;43.05;;
42084;SDS011;27746;52.228;20.890;2024-03-22T01:47:59;81.00;;;44.47;;
42084;SDS011;27746;52.228;20.890;2024-03-22T01:50:28;77.60;;;42.35;;
42084;SDS011;27746;52.228;20.890;2024-03-22T01:52:54;80.55;;;42.28;;
42084;SDS011;27746;52.228;20.890;2024-03-22T01:55:22;85.18;;;45.47;;
42084;SDS011;27746;52.228;20.890;2024-03-22T01:57:49;87.32;;;42.75;;
42084;SDS011;27746;52.228;20.890;2024-03-22T02:00:18;85.68;;;44.92;;
42084;SDS011;27746;52.228;20.890;2024-03-22T02:02:44;81.68;;;43.95;;
42084;SDS011;27746;52.228;20.890;2024-03-22T02:05:13;87.60;;;44.75;;
42084;SDS011;27746;52.228;20.890;2024-03-22T02:07:41;94.15;;;45.53;;
42084;SDS011;27746;52.228;20.890;2024-03-22T02:10:08;86.75;;;43.50;;
42084;SDS011;27746;52.228;20.890;2024-03-22T02:12:36;89.95;;;44.72;;
42084;SDS011;27746;52.228;20.890;2024-03-22T02:15:03;87.00;;;42.28;;
42084;SDS011;27746;52.228;20.890;2024-03-22T02:17:29;88.57;;;43.42;;
42084;SDS011;27746;52.228;20.890;2024-03-22T02:19:56;88.72;;;44.95;;
42084;SDS011;27746;52.228;20.890;2024-03-22T02:22:23;81.90;;;42.67;;
42084;SDS011;27746;52.228;20.890;2024-03-22T02:24:51;89.78;;;43.20;;
42084;SDS011;27746;52.228;20.890;2024-03-22T02:27:17;84.53;;;45.78;;
42084;SDS011;27746;52.228;20.890;2024-03-22T02:29:44;90.18;;;46.35;;
42084;SDS011;27746;52.228;20.890;2024-03-22T02:32:10;84.35;;;41.90;;
42084;SDS011;27746;52.228;20.890;2024-03-22T02:34:38;85.63;;;43.20;;
42084;SDS011;27746;52.228;20.890;2024-03-22T02:37:03;89.47;;;44.03;;
42084;SDS011;27746;52.228;20.890;2024-03-22T02:39:30;88.05;;;46.35;;
42084;SDS011;27746;52.228;20.890;2024-03-22T02:41:58;86.47;;;43.35;;
42084;SDS011;27746;52.228;20.890;2024-03-22T02:44:24;82.82;;;41.88;;
42084;SDS011;27746;52.228;20.890;2024-03-22T02:46:51;87.13;;;41.67;;
42084;SDS011;27746;52.228;20.890;2024-03-22T02:49:17;80.20;;;41.78;;
42084;SDS011;27746;52.228;20.890;2024-03-22T02:51:44;73.93;;;38.70;;
42084;SDS011;27746;52.228;20.890;2024-03-22T02:54:10;84.35;;;41.03;;
42084;SDS011;27746;52.228;20.890;2024-03-22T02:56:37;79.82;;;38.80;;
42084;SDS011;27746;52.228;20.890;2024-03-22T02:59:04;82.15;;;39.97;;
42084;SDS011;27746;52.228;20.890;2024-03-22T03:01:31;80.43;;;40.88;;
42084;SDS011;27746;52.228;20.890;2024-03-22T03:03:57;82.22;;;41.47;;
42084;SDS011;27746;52.228;20.890;2024-03-22T03:06:24;82.95;;;39.88;;
42084;SDS011;27746;52.228;20.890;2024-03-22T03:08:49;89.00;;;41.80;;
42084;SDS011;27746;52.228;20.890;2024-03-22T03:11:16;82.30;;;39.22;;
42084;SDS011;27746;52.228;20.890;2024-03-22T03:13:42;83.35;;;43.53;;
42084;SDS011;27746;52.228;20.890;2024-03-22T03:16:10;80.85;;;42.85;;
42084;SDS011;27746;52.228;20.890;2024-03-22T03:18:36;93.13;;;43.22;;
42084;SDS011;27746;52.228;20.890;2024-03-22T03:21:03;85.22;;;40.83;;
42084;SDS011;27746;52.228;20.890;2024-03-22T03:23:29;90.53;;;42.08;;
42084;SDS011;27746;52.228;20.890;2024-03-22T03:25:55;89.15;;;40.88;;
42084;SDS011;27746;52.228;20.890;2024-03-22T03:28:21;82.35;;;41.50;;
42084;SDS011;27746;52.228;20.890;2024-03-22T03:30:51;81.30;;;42.40;;
42084;SDS011;27746;52.228;20.890;2024-03-22T03:33:18;70.13;;;37.03;;
42084;SDS011;27746;52.228;20.890;2024-03-22T03:35:45;77.30;;;37.30;;
42084;SDS011;27746;52.228;20.890;2024-03-22T03:38:11;70.10;;;37.55;;
42084;SDS011;27746;52.228;20.890;2024-03-22T03:40:38;75.47;;;35.08;;
42084;SDS011;27746;52.228;20.890;2024-03-22T03:43:04;72.25;;;36.85;;
42084;SDS011;27746;52.228;20.890;2024-03-22T03:45:30;71.43;;;33.95;;
42084;SDS011;27746;52.228;20.890;2024-03-22T03:47:56;69.60;;;35.90;;
42084;SDS011;27746;52.228;20.890;2024-03-22T03:50:24;68.35;;;34.45;;
42084;SDS011;27746;52.228;20.890;2024-03-22T03:52:50;67.15;;;32.63;;
42084;SDS011;27746;52.228;20.890;2024-03-22T03:55:17;60.55;;;31.35;;
42084;SDS011;27746;52.228;20.890;2024-03-22T03:57:43;62.10;;;31.45;;
42084;SDS011;27746;52.228;20.890;2024-03-22T04:00:10;60.42;;;30.33;;
42084;SDS011;27746;52.228;20.890;2024-03-22T04:02:37;60.03;;;29.83;;
42084;SDS011;27746;52.228;20.890;2024-03-22T04:05:04;61.45;;;32.72;;
42084;SDS011;27746;52.228;20.890;2024-03-22T04:07:32;65.97;;;30.70;;
42084;SDS011;27746;52.228;20.890;2024-03-22T04:09:59;60.17;;;29.05;;
42084;SDS011;27746;52.228;20.890;2024-03-22T04:12:25;59.88;;;29.95;;
42084;SDS011;27746;52.228;20.890;2024-03-22T04:14:52;60.15;;;28.95;;
42084;SDS011;27746;52.228;20.890;2024-03-22T04:17:18;62.20;;;31.02;;
42084;SDS011;27746;52.228;20.890;2024-03-22T04:19:45;66.40;;;31.48;;
42084;SDS011;27746;52.228;20.890;2024-03-22T04:22:11;67.20;;;31.52;;
42084;SDS011;27746;52.228;20.890;2024-03-22T04:24:39;65.55;;;31.70;;
42084;SDS011;27746;52.228;20.890;2024-03-22T04:27:05;65.40;;;31.23;;
42084;SDS011;27746;52.228;20.890;2024-03-22T04:29:33;63.83;;;30.20;;
42084;SDS011;27746;52.228;20.890;2024-03-22T04:31:58;63.80;;;30.33;;
42084;SDS011;27746;52.228;20.890;2024-03-22T04:34:25;63.88;;;31.27;;
42084;SDS011;27746;52.228;20.890;2024-03-22T04:36:51;63.85;;;31.20;;
42084;SDS011;27746;52.228;20.890;2024-03-22T04:39:19;67.65;;;31.40;;
42084;SDS011;27746;52.228;20.890;2024-03-22T04:41:47;63.05;;;30.85;;
42084;SDS011;27746;52.228;20.890;2024-03-22T04:44:14;61.00;;;30.55;;
42084;SDS011;27746;52.228;20.890;2024-03-22T04:46:41;66.10;;;30.83;;
42084;SDS011;27746;52.228;20.890;2024-03-22T04:49:07;60.65;;;30.98;;
42084;SDS011;27746;52.228;20.890;2024-03-22T04:51:33;60.25;;;30.10;;
42084;SDS011;27746;52.228;20.890;2024-03-22T04:54:00;57.78;;;28.90;;
42084;SDS011;27746;52.228;20.890;2024-03-22T04:56:27;62.75;;;30.08;;
42084;SDS011;27746;52.228;20.890;2024-03-22T04:58:54;64.00;;;30.23;;
42084;SDS011;27746;52.228;20.890;2024-03-22T05:01:21;61.13;;;30.35;;
42084;SDS011;27746;52.228;20.890;2024-03-22T05:03:48;60.38;;;30.00;;
42084;SDS011;27746;52.228;20.890;2024-03-22T05:06:15;63.80;;;30.75;;
42084;SDS011;27746;52.228;20.890;2024-03-22T05:08:41;70.22;;;32.13;;
42084;SDS011;27746;52.228;20.890;2024-03-22T05:11:08;62.58;;;30.35;;
42084;SDS011;27746;52.228;20.890;2024-03-22T05:13:34;61.10;;;28.85;;
42084;SDS011;27746;52.228;20.890;2024-03-22T05:16:02;60.00;;;30.05;;
42084;SDS011;27746;52.228;20.890;2024-03-22T05:18:28;60.83;;;30.38;;
42084;SDS011;27746;52.228;20.890;2024-03-22T05:20:55;63.08;;;30.00;;
42084;SDS011;27746;52.228;20.890;2024-03-22T05:23:21;66.47;;;31.83;;
42084;SDS011;27746;52.228;20.890;2024-03-22T05:25:48;63.58;;;32.20;;
42084;SDS011;27746;52.228;20.890;2024-03-22T05:28:14;58.28;;;29.83;;
42084;SDS011;27746;52.228;20.890;2024-03-22T05:30:40;56.05;;;27.88;;
42084;SDS011;27746;52.228;20.890;2024-03-22T05:33:08;59.83;;;30.70;;
42084;SDS011;27746;52.228;20.890;2024-03-22T05:35:34;57.50;;;28.90;;
42084;SDS011;27746;52.228;20.890;2024-03-22T05:38:00;67.00;;;29.88;;
42084;SDS011;27746;52.228;20.890;2024-03-22T05:40:27;54.75;;;27.30;;
42084;SDS011;27746;52.228;20.890;2024-03-22T05:42:53;58.92;;;30.20;;
42084;SDS011;27746;52.228;20.890;2024-03-22T05:45:20;63.17;;;30.85;;
42084;SDS011;27746;52.228;20.890;2024-03-22T05:47:45;56.95;;;27.80;;
42084;SDS011;27746;52.228;20.890;2024-03-22T05:50:14;61.38;;;30.17;;
42084;SDS011;27746;52.228;20.890;2024-03-22T05:52:40;59.10;;;29.65;;
42084;SDS011;27746;52.228;20.890;2024-03-22T05:55:07;55.25;;;28.80;;
42084;SDS011;27746;52.228;20.890;2024-03-22T05:57:33;55.28;;;27.95;;
42084;SDS011;27746;52.228;20.890;2024-03-22T06:00:00;56.80;;;29.00;;
42084;SDS011;27746;52.228;20.890;2024-03-22T06:02:25;56.53;;;29.30;;
42084;SDS011;27746;52.228;20.890;2024-03-22T06:04:52;52.50;;;26.40;;
42084;SDS011;27746;52.228;20.890;2024-03-22T06:07:19;53.58;;;28.92;;
42084;SDS011;27746;52.228;20.890;2024-03-22T06:09:46;53.28;;;26.25;;
42084;SDS011;27746;52.228;20.890;2024-03-22T06:12:12;52.80;;;27.73;;
42084;SDS011;27746;52.228;20.890;2024-03-22T06:14:39;56.63;;;28.30;;
42084;SDS011;27746;52.228;20.890;2024-03-22T06:17:05;55.00;;;27.15;;
42084;SDS011;27746;52.228;20.890;2024-03-22T06:19:32;61.72;;;28.15;;
42084;SDS011;27746;52.228;20.890;2024-03-22T06:21:58;52.55;;;25.23;;
42084;SDS011;27746;52.228;20.890;2024-03-22T06:24:26;52.33;;;26.10;;
42084;SDS011;27746;52.228;20.890;2024-03-22T06:26:52;52.30;;;27.63;;
42084;SDS011;27746;52.228;20.890;2024-03-22T06:29:19;56.58;;;27.80;;
42084;SDS011;27746;52.228;20.890;2024-03-22T06:31:45;51.60;;;25.23;;
42084;SDS011;27746;52.228;20.890;2024-03-22T06:34:12;56.72;;;27.17;;
42084;SDS011;27746;52.228;20.890;2024-03-22T06:36:38;50.03;;;25.45;;
42084;SDS011;27746;52.228;20.890;2024-03-22T06:39:05;51.28;;;27.45;;
42084;SDS011;27746;52.228;20.890;2024-03-22T06:41:35;48.42;;;24.83;;
42084;SDS011;27746;52.228;20.890;2024-03-22T06:44:02;52.92;;;24.50;;
42084;SDS011;27746;52.228;20.890;2024-03-22T06:46:28;48.70;;;25.45;;
42084;SDS011;27746;52.228;20.890;2024-03-22T06:48:57;48.45;;;25.13;;
42084;SDS011;27746;52.228;20.890;2024-03-22T06:51:23;49.20;;;25.23;;
42084;SDS011;27746;52.228;20.890;2024-03-22T06:53:50;53.80;;;25.88;;
42084;SDS011;27746;52.228;20.890;2024-03-22T06:56:16;49.75;;;24.25;;
42084;SDS011;27746;52.228;20.890;2024-03-22T06:58:45;50.25;;;23.85;;
42084;SDS011;27746;52.228;20.890;2024-03-22T07:01:11;50.30;;;23.30;;
42084;SDS011;27746;52.228;20.890;2024-03-22T07:03:38;46.88;;;23.83;;
42084;SDS011;27746;52.228;20.890;2024-03-22T07:06:05;49.42;;;24.80;;
42084;SDS011;27746;52.228;20.890;2024-03-22T07:08:34;44.10;;;22.67;;
42084;SDS011;27746;52.228;20.890;2024-03-22T07:11:04;43.15;;;22.52;;
42084;SDS011;27746;52.228;20.890;2024-03-22T07:13:31;49.33;;;24.77;;
42084;SDS011;27746;52.228;20.890;2024-03-22T07:15:59;48.70;;;24.33;;
42084;SDS011;27746;52.228;20.890;2024-03-22T07:18:26;43.90;;;22.35;;
42084;SDS011;27746;52.228;20.890;2024-03-22T07:20:53;46.45;;;22.75;;
42084;SDS011;27746;52.228;20.890;2024-03-22T07:23:20;46.45;;;21.95;;
42084;SDS011;27746;52.228;20.890;2024-03-22T07:25:47;41.47;;;21.55;;
42084;SDS011;27746;52.228;20.890;2024-03-22T07:28:14;43.38;;;23.40;;
42084;SDS011;27746;52.228;20.890;2024-03-22T07:30:41;40.30;;;21.98;;
42084;SDS011;27746;52.228;20.890;2024-03-22T07:33:10;47.08;;;23.73;;
42084;SDS011;27746;52.228;20.890;2024-03-22T07:35:38;40.60;;;20.85;;
42084;SDS011;27746;52.228;20.890;2024-03-22T07:38:05;44.95;;;23.70;;
42084;SDS011;27746;52.228;20.890;2024-03-22T07:40:32;40.58;;;21.45;;
42084;SDS011;27746;52.228;20.890;2024-03-22T07:42:59;44.63;;;22.15;;
42084;SDS011;27746;52.228;20.890;2024-03-22T07:45:30;46.00;;;23.00;;
42084;SDS011;27746;52.228;20.890;2024-03-22T07:47:57;47.63;;;23.27;;
42084;SDS011;27746;52.228;20.890;2024-03-22T07:50:25;42.33;;;21.30;;
42084;SDS011;27746;52.228;20.890;2024-03-22T07:52:52;40.80;;;21.67;;
42084;SDS011;27746;52.228;20.890;2024-03-22T07:55:19;43.72;;;20.70;;
42084;SDS011;27746;52.228;20.890;2024-03-22T07:57:46;38.53;;;21.33;;
42084;SDS011;27746;52.228;20.890;2024-03-22T08:00:12;39.20;;;19.15;;
42084;SDS011;27746;52.228;20.890;2024-03-22T08:02:41;34.92;;;19.00;;
42084;SDS011;27746;52.228;20.890;2024-03-22T08:05:08;37.20;;;20.02;;
42084;SDS011;27746;52.228;20.890;2024-03-22T08:07:37;39.10;;;19.27;;
42084;SDS011;27746;52.228;20.890;2024-03-22T08:10:04;42.35;;;21.23;;
42084;SDS011;27746;52.228;20.890;2024-03-22T08:12:31;42.83;;;22.38;;
42084;SDS011;27746;52.228;20.890;2024-03-22T08:15:00;41.05;;;21.67;;
42084;SDS011;27746;52.228;20.890;2024-03-22T08:17:28;45.83;;;22.90;;
42084;SDS011;27746;52.228;20.890;2024-03-22T08:19:54;45.33;;;22.52;;
42084;SDS011;27746;52.228;20.890;2024-03-22T08:22:22;40.85;;;22.15;;
42084;SDS011;27746;52.228;20.890;2024-03-22T08:24:49;39.80;;;21.83;;
42084;SDS011;27746;52.228;20.890;2024-03-22T08:27:17;41.85;;;21.20;;
42084;SDS011;27746;52.228;20.890;2024-03-22T08:29:43;39.63;;;21.17;;
42084;SDS011;27746;52.228;20.890;2024-03-22T08:32:10;42.60;;;21.27;;
42084;SDS011;27746;52.228;20.890;2024-03-22T08:34:36;38.55;;;21.20;;
42084;SDS011;27746;52.228;20.890;2024-03-22T08:37:03;36.60;;;19.15;;
42084;SDS011;27746;52.228;20.890;2024-03-22T08:39:30;37.10;;;20.50;;
42084;SDS011;27746;52.228;20.890;2024-03-22T08:41:58;33.38;;;18.58;;
42084;SDS011;27746;52.228;20.890;2024-03-22T08:44:24;32.30;;;18.20;;
42084;SDS011;27746;52.228;20.890;2024-03-22T08:46:52;38.38;;;19.35;;
42084;SDS011;27746;52.228;20.890;2024-03-22T08:49:18;37.25;;;20.02;;
42084;SDS011;27746;52.228;20.890;2024-03-22T08:51:45;33.42;;;18.23;;
42084;SDS011;27746;52.228;20.890;2024-03-22T08:54:11;38.35;;;20.30;;
42084;SDS011;27746;52.228;20.890;2024-03-22T08:56:38;33.92;;;18.17;;
42084;SDS011;27746;52.228;20.890;2024-03-22T08:59:06;28.63;;;17.17;;
42084;SDS011;27746;52.228;20.890;2024-03-22T09:01:33;31.95;;;17.05;;
42084;SDS011;27746;52.228;20.890;2024-03-22T09:04:00;36.00;;;18.80;;
42084;SDS011;27746;52.228;20.890;2024-03-22T09:06:27;32.33;;;18.60;;
42084;SDS011;27746;52.228;20.890;2024-03-22T09:08:54;34.40;;;18.30;;
42084;SDS011;27746;52.228;20.890;2024-03-22T09:11:23;35.72;;;18.13;;
42084;SDS011;27746;52.228;20.890;2024-03-22T09:13:51;33.33;;;19.65;;
42084;SDS011;27746;52.228;20.890;2024-03-22T09:16:19;35.13;;;19.25;;
42084;SDS011;27746;52.228;20.890;2024-03-22T09:18:46;47.35;;;23.13;;
42084;SDS011;27746;52.228;20.890;2024-03-22T09:21:13;40.38;;;21.42;;
42084;SDS011;27746;52.228;20.890;2024-03-22T09:23:39;38.60;;;21.23;;
42084;SDS011;27746;52.228;20.890;2024-03-22T09:26:06;39.20;;;21.63;;
42084;SDS011;27746;52.228;20.890;2024-03-22T09:28:33;41.97;;;21.48;;
42084;SDS011;27746;52.228;20.890;2024-03-22T09:31:03;41.65;;;20.98;;
42084;SDS011;27746;52.228;20.890;2024-03-22T09:33:30;40.63;;;21.80;;
42084;SDS011;27746;52.228;20.890;2024-03-22T09:35:58;39.20;;;22.75;;
42084;SDS011;27746;52.228;20.890;2024-03-22T09:38:24;39.33;;;21.00;;
42084;SDS011;27746;52.228;20.890;2024-03-22T09:40:51;40.30;;;20.27;;
42084;SDS011;27746;52.228;20.890;2024-03-22T09:43:19;36.92;;;19.58;;
42084;SDS011;27746;52.228;20.890;2024-03-22T09:45:47;32.90;;;17.33;;
42084;SDS011;27746;52.228;20.890;2024-03-22T09:48:13;35.17;;;21.38;;
42084;SDS011;27746;52.228;20.890;2024-03-22T09:50:42;32.30;;;18.63;;
42084;SDS011;27746;52.228;20.890;2024-03-22T09:53:08;29.08;;;17.30;;
42084;SDS011;27746;52.228;20.890;2024-03-22T09:55:36;27.08;;;14.25;;
42084;SDS011;27746;52.228;20.890;2024-03-22T09:58:02;25.75;;;15.48;;
42084;SDS011;27746;52.228;20.890;2024-03-22T10:00:30;27.33;;;15.23;;
42084;SDS011;27746;52.228;20.890;2024-03-22T10:02:56;31.75;;;16.20;;
42084;SDS011;27746;52.228;20.890;2024-03-22T10:05:24;31.45;;;16.95;;
42084;SDS011;27746;52.228;20.890;2024-03-22T10:07:52;30.65;;;17.45;;
42084;SDS011;27746;52.228;20.890;2024-03-22T10:10:20;33.75;;;18.92;;
42084;SDS011;27746;52.228;20.890;2024-03-22T10:12:47;34.97;;;18.30;;
42084;SDS011;27746;52.228;20.890;2024-03-22T10:15:14;33.03;;;18.05;;
42084;SDS011;27746;52.228;20.890;2024-03-22T10:17:41;34.13;;;19.02;;
42084;SDS011;27746;52.228;20.890;2024-03-22T10:20:12;36.55;;;20.40;;
42084;SDS011;27746;52.228;20.890;2024-03-22T10:22:41;34.03;;;20.40;;
42084;SDS011;27746;52.228;20.890;2024-03-22T10:25:09;35.85;;;20.52;;
42084;SDS011;27746;52.228;20.890;2024-03-22T10:27:37;41.30;;;22.27;;
42084;SDS011;27746;52.228;20.890;2024-03-22T10:30:06;37.97;;;21.27;;
42084;SDS011;27746;52.228;20.890;2024-03-22T10:32:34;41.70;;;21.45;;
42084;SDS011;27746;52.228;20.890;2024-03-22T10:35:01;39.05;;;21.08;;
42084;SDS011;27746;52.228;20.890;2024-03-22T10:37:30;41.17;;;21.83;;
42084;SDS011;27746;52.228;20.890;2024-03-22T10:40:02;43.10;;;22.73;;
42084;SDS011;27746;52.228;20.890;2024-03-22T10:42:34;40.05;;;21.58;;
42084;SDS011;27746;52.228;20.890;2024-03-22T10:45:01;39.75;;;21.48;;
42084;SDS011;27746;52.228;20.890;2024-03-22T10:47:29;37.80;;;21.48;;
42084;SDS011;27746;52.228;20.890;2024-03-22T10:49:58;42.45;;;21.50;;
42084;SDS011;27746;52.228;20.890;2024-03-22T10:52:26;37.25;;;20.40;;
42084;SDS011;27746;52.228;20.890;2024-03-22T10:54:53;34.03;;;19.77;;
42084;SDS011;27746;52.228;20.890;2024-03-22T10:57:20;36.63;;;20.27;;
42084;SDS011;27746;52.228;20.890;2024-03-22T10:59:48;37.17;;;20.13;;
42084;SDS011;27746;52.228;20.890;2024-03-22T11:02:14;36.15;;;21.42;;
42084;SDS011;27746;52.228;20.890;2024-03-22T11:04:53;33.10;;;18.70;;
42084;SDS011;27746;52.228;20.890;2024-03-22T11:07:19;36.88;;;20.27;;
42084;SDS011;27746;52.228;20.890;2024-03-22T11:09:51;35.38;;;17.75;;
42084;SDS011;27746;52.228;20.890;2024-03-22T11:12:18;33.03;;;19.17;;
42084;SDS011;27746;52.228;20.890;2024-03-22T11:14:46;39.08;;;20.73;;
42084;SDS011;27746;52.228;20.890;2024-03-22T11:17:15;28.60;;;16.60;;
42084;SDS011;27746;52.228;20.890;2024-03-22T11:19:42;32.65;;;17.08;;
42084;SDS011;27746;52.228;20.890;2024-03-22T11:22:09;33.22;;;17.60;;
42084;SDS011;27746;52.228;20.890;2024-03-22T11:24:37;31.35;;;17.02;;
42084;SDS011;27746;52.228;20.890;2024-03-22T11:27:03;30.50;;;17.58;;
42084;SDS011;27746;52.228;20.890;2024-03-22T11:29:30;32.25;;;18.42;;
42084;SDS011;27746;52.228;20.890;2024-03-22T11:31:56;27.90;;;17.52;;
42084;SDS011;27746;52.228;20.890;2024-03-22T11:34:25;26.17;;;16.05;;
42084;SDS011;27746;52.228;20.890;2024-03-22T11:36:51;32.63;;;16.40;;
42084;SDS011;27746;52.228;20.890;2024-03-22T11:39:18;24.05;;;14.93;;
42084;SDS011;27746;52.228;20.890;2024-03-22T11:41:44;27.27;;;14.95;;
42084;SDS011;27746;52.228;20.890;2024-03-22T11:44:14;24.02;;;14.63;;
42084;SDS011;27746;52.228;20.890;2024-03-22T11:46:40;26.77;;;15.18;;
42084;SDS011;27746;52.228;20.890;2024-03-22T11:49:07;31.33;;;16.15;;
42084;SDS011;27746;52.228;20.890;2024-03-22T11:51:35;24.75;;;14.80;;
42084;SDS011;27746;52.228;20.890;2024-03-22T11:54:02;25.92;;;14.55;;
42084;SDS011;27746;52.228;20.890;2024-03-22T11:56:30;20.80;;;12.55;;
42084;SDS011;27746;52.228;20.890;2024-03-22T11:58:57;22.58;;;13.35;;
42084;SDS011;27746;52.228;20.890;2024-03-22T12:01:25;22.73;;;14.93;;
42084;SDS011;27746;52.228;20.890;2024-03-22T12:03:52;24.45;;;13.57;;
42084;SDS011;27746;52.228;20.890;2024-03-22T12:06:20;25.50;;;13.77;;
42084;SDS011;27746;52.228;20.890;2024-03-22T12:08:48;22.15;;;12.98;;
42084;SDS011;27746;52.228;20.890;2024-03-22T12:11:16;20.83;;;12.18;;
42084;SDS011;27746;52.228;20.890;2024-03-22T12:13:42;20.52;;;13.13;;
42084;SDS011;27746;52.228;20.890;2024-03-22T12:16:09;22.67;;;13.57;;
42084;SDS011;27746;52.228;20.890;2024-03-22T12:18:36;23.42;;;13.02;;
42084;SDS011;27746;52.228;20.890;2024-03-22T12:21:03;22.23;;;12.55;;
42084;SDS011;27746;52.228;20.890;2024-03-22T12:23:29;19.20;;;11.32;;
42084;SDS011;27746;52.228;20.890;2024-03-22T12:25:58;20.13;;;10.90;;
42084;SDS011;27746;52.228;20.890;2024-03-22T12:28:24;19.23;;;10.18;;
42084;SDS011;27746;52.228;20.890;2024-03-22T12:30:51;21.35;;;10.88;;
42084;SDS011;27746;52.228;20.890;2024-03-22T12:33:17;22.63;;;11.38;;
42084;SDS011;27746;52.228;20.890;2024-03-22T12:35:44;24.05;;;13.02;;
42084;SDS011;27746;52.228;20.890;2024-03-22T12:38:13;21.65;;;11.50;;
42084;SDS011;27746;52.228;20.890;2024-03-22T12:40:40;22.27;;;10.70;;
42084;SDS011;27746;52.228;20.890;2024-03-22T12:43:09;23.45;;;11.32;;
42084;SDS011;27746;52.228;20.890;2024-03-22T12:45:37;21.35;;;10.70;;
42084;SDS011;27746;52.228;20.890;2024-03-22T12:48:03;18.90;;;10.32;;
42084;SDS011;27746;52.228;20.890;2024-03-22T12:50:31;18.48;;;10.82;;
42084;SDS011;27746;52.228;20.890;2024-03-22T12:52:58;19.30;;;10.10;;
42084;SDS011;27746;52.228;20.890;2024-03-22T12:55:26;19.45;;;10.43;;
42084;SDS011;27746;52.228;20.890;2024-03-22T12:57:53;18.30;;;10.40;;
42084;SDS011;27746;52.228;20.890;2024-03-22T13:00:22;17.63;;;10.70;;
42084;SDS011;27746;52.228;20.890;2024-03-22T13:02:48;21.80;;;12.20;;
42084;SDS011;27746;52.228;20.890;2024-03-22T13:05:15;21.02;;;11.95;;
42084;SDS011;27746;52.228;20.890;2024-03-22T13:07:41;21.10;;;11.82;;
42084;SDS011;27746;52.228;20.890;2024-03-22T13:10:09;19.75;;;11.68;;
42084;SDS011;27746;52.228;20.890;2024-03-22T13:12:35;18.65;;;11.05;;
42084;SDS011;27746;52.228;20.890;2024-03-22T13:15:02;18.10;;;11.18;;
42084;SDS011;27746;52.228;20.890;2024-03-22T13:17:30;19.63;;;12.60;;
42084;SDS011;27746;52.228;20.890;2024-03-22T13:19:58;20.63;;;12.55;;
42084;SDS011;27746;52.228;20.890;2024-03-22T13:22:25;23.48;;;12.63;;
42084;SDS011;27746;52.228;20.890;2024-03-22T13:24:52;22.55;;;13.35;;
42084;SDS011;27746;52.228;20.890;2024-03-22T13:27:18;21.83;;;13.27;;
42084;SDS011;27746;52.228;20.890;2024-03-22T13:29:47;22.30;;;13.27;;
42084;SDS011;27746;52.228;20.890;2024-03-22T13:32:14;22.95;;;13.10;;
42084;SDS011;27746;52.228;20.890;2024-03-22T13:34:43;22.27;;;12.40;;
42084;SDS011;27746;52.228;20.890;2024-03-22T13:37:09;22.50;;;13.98;;
42084;SDS011;27746;52.228;20.890;2024-03-22T13:39:36;22.67;;;12.43;;
42084;SDS011;27746;52.228;20.890;2024-03-22T13:42:02;21.52;;;13.00;;
42084;SDS011;27746;52.228;20.890;2024-03-22T13:44:31;22.48;;;13.48;;
42084;SDS011;27746;52.228;20.890;2024-03-22T13:46:58;21.65;;;13.93;;
42084;SDS011;27746;52.228;20.890;2024-03-22T13:49:25;25.13;;;13.30;;
42084;SDS011;27746;52.228;20.890;2024-03-22T13:51:52;24.80;;;14.60;;
42084;SDS011;27746;52.228;20.890;2024-03-22T13:54:19;20.42;;;12.60;;
42084;SDS011;27746;52.228;20.890;2024-03-22T13:56:46;23.13;;;14.10;;
42084;SDS011;27746;52.228;20.890;2024-03-22T13:59:13;26.45;;;14.75;;
42084;SDS011;27746;52.228;20.890;2024-03-22T14:01:41;26.10;;;14.75;;
42084;SDS011;27746;52.228;20.890;2024-03-22T14:04:10;22.08;;;13.77;;
42084;SDS011;27746;52.228;20.890;2024-03-22T14:06:37;23.60;;;14.32;;